Time;durP1;ratioP1;P1;durP2;ratioP2;P2;SDS_P1;SDS_P2;PMS_P1;PMS_P2;Temp;Humidity;BMP_temperature;BMP_pressure;BME280_temperature;BME280_humidity;BME280_pressure;Samples;Min_cycle;Max_cycle;Signal;HPM_P1;HPM_P2
2022/07/19 00:01:56;;;;;;;2.00;0.88;;;17.70;54.80;;;;;;5024981;28;20751;-55
2022/07/19 00:04:26;;;;;;;1.42;1.00;;;17.80;54.80;;;;;;5031145;28;20218;-51
2022/07/19 00:06:57;;;;;;;4.35;1.35;;;17.80;54.80;;;;;;5027903;28;20224;-45
2022/07/19 00:09:28;;;;;;;1.00;0.70;;;17.80;54.80;;;;;;5024296;28;20196;-53
2022/07/19 00:12:01;;;;;;;1.88;0.90;;;17.80;54.80;;;;;;5030680;28;20200;-52
2022/07/19 00:14:32;;;;;;;1.63;1.02;;;17.80;54.80;;;;;;5031344;28;20204;-49
2022/07/19 00:17:02;;;;;;;1.08;0.70;;;17.90;54.80;;;;;;5030088;28;20196;-45
2022/07/19 00:19:33;;;;;;;1.67;0.90;;;17.90;54.90;;;;;;5030133;28;20200;-47
2022/07/19 00:22:04;;;;;;;1.58;0.98;;;17.90;54.90;;;;;;5030228;28;20200;-47
2022/07/19 00:24:34;;;;;;;1.67;1.00;;;17.90;54.80;;;;;;5030657;28;20196;-46
2022/07/19 00:27:07;;;;;;;2.38;0.80;;;18.00;54.80;;;;;;5030917;28;20249;-50
2022/07/19 00:29:38;;;;;;;1.27;0.80;;;17.90;54.80;;;;;;5028385;28;20227;-56
2022/07/19 00:32:09;;;;;;;1.42;0.93;;;18.00;54.80;;;;;;5030084;28;20204;-47
2022/07/19 00:34:40;;;;;;;1.17;0.80;;;18.00;54.80;;;;;;5030214;28;20203;-49
2022/07/19 00:37:11;;;;;;;1.25;0.98;;;18.00;54.80;;;;;;5030095;28;20223;-46
2022/07/19 00:39:42;;;;;;;0.98;0.77;;;18.00;55.00;;;;;;5029900;28;20212;-45
2022/07/19 00:42:15;;;;;;;0.80;0.77;;;18.00;55.00;;;;;;5029945;28;20196;-48
2022/07/19 00:44:45;;;;;;;1.30;0.90;;;18.00;55.00;;;;;;5030605;28;20234;-47
2022/07/19 00:47:16;;;;;;;1.55;0.80;;;18.00;55.00;;;;;;5031767;28;20219;-49
2022/07/19 00:49:47;;;;;;;0.88;0.80;;;18.10;55.00;;;;;;5014398;28;20212;-47
2022/07/19 00:52:18;;;;;;;1.20;0.80;;;18.10;55.10;;;;;;5030102;28;20729;-50
2022/07/19 00:54:51;;;;;;;1.50;0.98;;;18.10;55.00;;;;;;5034275;28;20199;-46
2022/07/19 00:57:25;;;;;;;1.67;0.80;;;18.10;55.00;;;;;;5034046;28;20203;-48
2022/07/19 00:59:57;;;;;;;1.10;0.80;;;18.10;55.10;;;;;;5034105;28;20226;-50
2022/07/19 01:02:29;;;;;;;1.15;0.93;;;18.10;55.10;;;;;;5034263;28;20200;-54
2022/07/19 01:05:00;;;;;;;0.90;0.70;;;18.10;55.10;;;;;;5034152;28;20203;-56
2022/07/19 01:07:31;;;;;;;0.95;0.82;;;18.20;55.10;;;;;;5033793;28;20224;-50
2022/07/19 01:10:02;;;;;;;1.27;0.80;;;18.10;55.10;;;;;;5033438;28;20216;-48
2022/07/19 01:12:36;;;;;;;1.65;0.95;;;18.20;55.20;;;;;;5030007;28;20192;-48
2022/07/19 01:15:16;;;;;;;1.05;0.90;;;18.20;55.20;;;;;;5013576;28;20258;-49
2022/07/19 01:17:47;;;;;;;2.13;0.85;;;18.10;55.20;;;;;;5031441;28;20208;-49
2022/07/19 01:20:17;;;;;;;1.73;0.82;;;18.20;55.20;;;;;;5033319;28;20216;-52
2022/07/19 01:22:50;;;;;;;1.63;0.90;;;18.20;55.20;;;;;;5013720;28;20200;-49
2022/07/19 01:25:21;;;;;;;1.20;0.80;;;18.20;55.20;;;;;;5013893;28;20200;-50
2022/07/19 01:27:52;;;;;;;1.48;0.90;;;18.20;55.20;;;;;;5016296;28;20220;-46
2022/07/19 01:30:25;;;;;;;1.80;0.98;;;18.20;55.20;;;;;;5012475;28;20217;-50
2022/07/19 01:32:56;;;;;;;0.70;0.63;;;18.20;55.20;;;;;;5013479;28;20196;-52
2022/07/19 01:35:28;;;;;;;1.02;0.90;;;18.20;55.20;;;;;;5012385;28;20212;-54
2022/07/19 01:38:01;;;;;;;1.17;0.85;;;18.20;55.20;;;;;;5032302;28;20227;-54
2022/07/19 01:40:33;;;;;;;1.02;0.80;;;18.20;55.20;;;;;;5032220;28;20216;-52
2022/07/19 01:43:04;;;;;;;1.00;0.90;;;18.20;55.20;;;;;;5032894;28;20269;-46
2022/07/19 01:45:34;;;;;;;1.30;0.90;;;18.20;55.20;;;;;;5033713;28;20215;-52
2022/07/19 01:48:05;;;;;;;0.95;0.85;;;18.20;55.20;;;;;;5033306;28;20224;-49
2022/07/19 01:50:36;;;;;;;0.65;0.65;;;18.20;55.30;;;;;;5033377;28;20213;-49
2022/07/19 01:53:08;;;;;;;1.38;0.90;;;18.20;55.20;;;;;;5033826;28;20656;-51
2022/07/19 01:55:39;;;;;;;1.42;0.95;;;18.20;55.20;;;;;;5032549;28;20674;-50
2022/07/19 01:58:10;;;;;;;1.02;0.93;;;18.20;55.20;;;;;;5031580;28;20653;-51
2022/07/19 02:00:41;;;;;;;1.05;0.80;;;18.20;55.20;;;;;;5032334;28;20220;-60
2022/07/19 02:03:11;;;;;;;1.33;0.85;;;18.20;55.20;;;;;;5032854;28;20196;-52
2022/07/19 02:05:42;;;;;;;1.17;0.90;;;18.30;55.30;;;;;;5032579;28;20204;-54
2022/07/19 02:08:15;;;;;;;0.90;0.85;;;18.30;55.30;;;;;;5032327;28;20224;-51
2022/07/19 02:10:45;;;;;;;0.90;0.80;;;18.30;55.30;;;;;;5032526;28;20220;-48
2022/07/19 02:13:16;;;;;;;1.10;0.90;;;18.30;55.30;;;;;;5032839;28;20195;-51
2022/07/19 02:15:47;;;;;;;0.95;0.80;;;18.30;55.30;;;;;;5032628;28;20567;-55
2022/07/19 02:18:18;;;;;;;1.00;0.90;;;18.30;55.30;;;;;;5032731;28;20204;-47
2022/07/19 02:20:49;;;;;;;1.23;0.85;;;18.30;55.30;;;;;;5032816;28;20702;-49
2022/07/19 02:23:21;;;;;;;0.73;0.65;;;18.30;55.30;;;;;;5032479;28;20649;-52
2022/07/19 02:25:52;;;;;;;1.27;0.82;;;18.30;55.30;;;;;;5032135;28;20200;-54
2022/07/19 02:28:23;;;;;;;1.17;0.90;;;18.30;55.30;;;;;;5033196;28;20227;-57
2022/07/19 02:30:53;;;;;;;1.23;0.68;;;18.30;55.30;;;;;;5032606;28;20212;-59
2022/07/19 02:33:24;;;;;;;1.00;0.80;;;18.40;55.30;;;;;;5031634;28;20568;-49
2022/07/19 02:35:55;;;;;;;0.98;0.88;;;18.30;55.20;;;;;;5032838;28;20199;-47
2022/07/19 02:38:27;;;;;;;0.60;0.60;;;18.30;55.10;;;;;;5032592;28;20196;-54
2022/07/19 02:40:58;;;;;;;2.05;0.90;;;18.30;55.10;;;;;;5032565;28;20227;-48
2022/07/19 02:43:29;;;;;;;0.85;0.80;;;18.40;55.20;;;;;;5032229;28;20286;-47
2022/07/19 02:46:00;;;;;;;1.98;0.90;;;18.40;55.20;;;;;;5032036;28;20211;-48
2022/07/19 02:48:30;;;;;;;1.38;0.75;;;18.40;55.30;;;;;;5031544;28;20235;-46
2022/07/19 02:51:01;;;;;;;1.27;0.80;;;18.40;55.30;;;;;;5032089;28;20243;-49
2022/07/19 02:53:34;;;;;;;1.88;0.82;;;18.40;55.40;;;;;;5032670;28;20723;-52
2022/07/19 02:56:04;;;;;;;0.95;0.80;;;18.40;55.40;;;;;;5031571;28;20188;-46
2022/07/19 02:58:35;;;;;;;0.77;0.70;;;18.40;55.40;;;;;;5031740;28;20219;-49
2022/07/19 03:01:06;;;;;;;1.20;0.75;;;18.40;55.40;;;;;;5031440;28;20224;-48
2022/07/19 03:03:46;;;;;;;0.98;0.70;;;18.40;55.40;;;;;;5028249;28;20543;-47
2022/07/19 03:06:18;;;;;;;1.60;0.90;;;18.40;56.00;;;;;;5025810;28;20202;-45
2022/07/19 03:08:51;;;;;;;0.70;0.60;;;18.40;55.30;;;;;;5032221;28;20224;-45
2022/07/19 03:11:22;;;;;;;0.80;0.80;;;18.40;55.30;;;;;;5030498;28;20215;-46
2022/07/19 03:13:52;;;;;;;1.20;0.88;;;18.40;55.40;;;;;;5031975;28;20262;-46
2022/07/19 03:16:23;;;;;;;0.80;0.68;;;18.40;55.40;;;;;;5031467;28;20207;-48
2022/07/19 03:18:54;;;;;;;0.82;0.82;;;18.30;55.40;;;;;;5031277;28;20544;-57
2022/07/19 03:21:24;;;;;;;2.05;0.95;;;18.40;55.40;;;;;;5031699;28;20231;-55
2022/07/19 03:23:57;;;;;;;0.85;0.70;;;18.30;55.40;;;;;;5030868;28;20200;-52
2022/07/19 03:26:28;;;;;;;1.10;0.85;;;18.30;55.40;;;;;;5030820;28;20199;-50
2022/07/19 03:28:58;;;;;;;0.63;0.63;;;18.30;55.40;;;;;;5026586;28;20226;-47
2022/07/19 03:31:29;;;;;;;0.85;0.77;;;18.30;55.40;;;;;;5027284;28;20240;-51
2022/07/19 03:34:00;;;;;;;1.92;0.80;;;18.30;55.40;;;;;;5029025;28;20192;-52
2022/07/19 03:36:30;;;;;;;1.58;0.65;;;18.30;55.40;;;;;;5028231;28;20200;-49
2022/07/19 03:39:03;;;;;;;1.05;0.73;;;18.30;55.40;;;;;;5030656;28;20290;-54
2022/07/19 03:41:34;;;;;;;1.45;0.70;;;18.20;55.30;;;;;;5031001;28;20212;-47
2022/07/19 03:44:05;;;;;;;0.98;0.80;;;18.30;55.40;;;;;;5030280;28;20210;-60
2022/07/19 03:46:37;;;;;;;0.70;0.70;;;18.30;55.40;;;;;;5030807;28;20699;-53
2022/07/19 03:49:08;;;;;;;0.82;0.63;;;18.20;55.40;;;;;;5030935;28;20307;-49
2022/07/19 03:51:38;;;;;;;1.25;0.80;;;18.20;55.30;;;;;;5030037;28;20228;-52
2022/07/19 03:54:11;;;;;;;1.88;0.90;;;18.20;55.40;;;;;;5031235;28;20196;-57
2022/07/19 03:56:42;;;;;;;1.25;0.88;;;18.20;55.40;;;;;;5030002;28;20200;-59
2022/07/19 03:59:12;;;;;;;0.70;0.70;;;18.10;55.40;;;;;;5030720;28;20196;-55
2022/07/19 04:01:43;;;;;;;1.35;0.80;;;18.10;55.40;;;;;;5030290;28;20656;-56
2022/07/19 04:04:14;;;;;;;0.70;0.70;;;18.10;55.40;;;;;;5030848;28;20674;-51
2022/07/19 04:06:44;;;;;;;0.95;0.80;;;18.10;55.30;;;;;;5030442;28;20207;-48
2022/07/19 04:09:17;;;;;;;0.60;0.60;;;18.10;55.40;;;;;;5030774;28;20235;-46
2022/07/19 04:11:48;;;;;;;0.68;0.68;;;18.10;55.40;;;;;;5030639;28;20199;-50
2022/07/19 04:14:19;;;;;;;0.70;0.70;;;18.10;55.40;;;;;;5030330;28;20196;-48
2022/07/19 04:16:49;;;;;;;0.98;0.60;;;18.10;55.50;;;;;;5031151;28;20200;-46
2022/07/19 04:19:20;;;;;;;0.60;0.60;;;18.00;55.40;;;;;;5030914;28;20281;-46
2022/07/19 04:21:51;;;;;;;0.70;0.70;;;18.00;55.40;;;;;;5030120;28;20196;-47
2022/07/19 04:24:23;;;;;;;0.70;0.70;;;18.00;55.50;;;;;;5030861;28;20199;-51
2022/07/19 04:26:54;;;;;;;0.88;0.80;;;18.00;55.40;;;;;;5029894;28;20207;-53
2022/07/19 04:29:25;;;;;;;0.68;0.68;;;17.90;55.40;;;;;;5030024;28;20246;-46
2022/07/19 04:31:55;;;;;;;0.82;0.77;;;17.90;55.40;;;;;;5030613;28;20196;-48
2022/07/19 04:34:26;;;;;;;1.05;0.80;;;17.90;55.40;;;;;;5030151;28;20192;-50
2022/07/19 04:36:57;;;;;;;1.13;0.80;;;17.90;55.40;;;;;;5030347;28;20204;-53
2022/07/19 04:39:29;;;;;;;0.85;0.80;;;17.90;55.40;;;;;;5030404;28;20679;-46
2022/07/19 04:42:00;;;;;;;0.90;0.77;;;17.90;55.40;;;;;;5030088;28;20200;-48
2022/07/19 04:44:31;;;;;;;0.60;0.60;;;17.90;55.50;;;;;;5030429;28;20208;-53
2022/07/19 04:47:01;;;;;;;1.48;0.82;;;17.80;55.40;;;;;;5030480;28;20200;-49
2022/07/19 04:49:32;;;;;;;0.88;0.65;;;17.80;55.50;;;;;;5030360;28;20230;-48
2022/07/19 04:52:03;;;;;;;0.82;0.50;;;17.80;55.50;;;;;;5030456;28;20200;-56
2022/07/19 04:54:35;;;;;;;1.10;1.00;;;17.80;55.50;;;;;;5029373;28;20199;-59
2022/07/19 04:57:06;;;;;;;1.38;0.70;;;17.80;55.50;;;;;;5029200;28;20196;-59
2022/07/19 04:59:37;;;;;;;0.73;0.73;;;17.70;55.50;;;;;;5029938;28;20291;-55
2022/07/19 05:02:08;;;;;;;0.90;0.90;;;17.70;55.50;;;;;;5029804;28;20732;-51
2022/07/19 05:04:38;;;;;;;0.80;0.80;;;17.70;55.50;;;;;;5029323;28;20200;-49
2022/07/19 05:07:09;;;;;;;0.50;0.50;;;17.70;55.50;;;;;;5030133;28;20561;-52
2022/07/19 05:09:42;;;;;;;1.10;1.00;;;17.70;55.50;;;;;;5027628;28;20232;-47
2022/07/19 05:12:12;;;;;;;0.85;0.85;;;17.70;55.50;;;;;;5010725;28;20204;-49
2022/07/19 05:14:43;;;;;;;1.00;0.73;;;17.60;55.40;;;;;;5010649;28;20203;-51
2022/07/19 05:17:14;;;;;;;1.55;1.00;;;17.60;55.50;;;;;;5022196;28;20204;-48
2022/07/19 05:19:45;;;;;;;1.48;0.90;;;17.60;55.50;;;;;;5030093;28;20580;-49
2022/07/19 05:22:16;;;;;;;0.90;0.82;;;17.60;55.50;;;;;;5029985;28;20211;-52
2022/07/19 05:24:48;;;;;;;1.13;1.00;;;17.60;55.60;;;;;;5029381;28;20212;-53
2022/07/19 05:27:19;;;;;;;0.90;0.90;;;17.50;55.50;;;;;;5030635;28;20196;-51
2022/07/19 05:29:50;;;;;;;0.90;0.80;;;17.50;55.50;;;;;;5029536;28;20224;-50
2022/07/19 05:32:20;;;;;;;1.27;1.17;;;17.50;55.60;;;;;;5018564;28;20585;-53
2022/07/19 05:34:51;;;;;;;1.60;1.27;;;17.50;55.50;;;;;;5013492;28;20208;-53
2022/07/19 05:37:22;;;;;;;0.85;0.85;;;17.50;55.50;;;;;;5023420;28;20204;-56
2022/07/19 05:39:54;;;;;;;1.08;0.98;;;17.40;55.50;;;;;;5031897;28;20235;-51
2022/07/19 05:42:25;;;;;;;0.80;0.80;;;17.40;55.50;;;;;;5032694;28;20235;-55
2022/07/19 05:44:56;;;;;;;1.00;1.00;;;17.40;55.50;;;;;;5033246;28;20208;-54
2022/07/19 05:47:27;;;;;;;1.08;0.98;;;17.40;55.60;;;;;;5032776;28;20202;-57
2022/07/19 05:49:59;;;;;;;1.25;0.90;;;17.40;55.60;;;;;;5033859;28;20605;-53
2022/07/19 05:52:29;;;;;;;1.13;1.00;;;17.40;55.60;;;;;;5033686;28;20204;-54
2022/07/19 05:55:02;;;;;;;0.82;0.75;;;17.30;55.60;;;;;;5032960;28;20649;-56
2022/07/19 05:57:32;;;;;;;1.20;1.10;;;17.30;55.60;;;;;;5033737;28;20669;-55
2022/07/19 06:00:03;;;;;;;1.38;1.00;;;17.30;55.60;;;;;;5032865;28;20226;-50
2022/07/19 06:02:34;;;;;;;1.73;0.80;;;17.30;55.60;;;;;;5032636;28;20207;-58
2022/07/19 06:05:05;;;;;;;1.40;1.25;;;17.30;55.60;;;;;;5032184;28;20570;-53
2022/07/19 06:07:35;;;;;;;2.90;1.20;;;17.20;55.50;;;;;;5032727;28;20200;-53
2022/07/19 06:10:09;;;;;;;1.55;1.20;;;17.20;55.50;;;;;;5031995;28;20231;-56
2022/07/19 06:12:39;;;;;;;1.58;1.20;;;17.20;55.50;;;;;;5032602;28;20204;-54
2022/07/19 06:15:11;;;;;;;1.13;1.00;;;17.20;55.60;;;;;;5032665;28;20196;-48
2022/07/19 06:17:42;;;;;;;1.10;1.00;;;17.10;55.50;;;;;;5032161;28;20211;-49
2022/07/19 06:20:13;;;;;;;1.77;1.20;;;17.10;55.50;;;;;;5032526;28;20227;-55
2022/07/19 06:22:44;;;;;;;1.10;1.00;;;17.10;55.50;;;;;;5032613;28;20645;-49
2022/07/19 06:25:16;;;;;;;1.63;1.30;;;17.10;55.60;;;;;;5033047;28;20204;-45
2022/07/19 06:27:47;;;;;;;1.30;1.00;;;17.00;55.50;;;;;;5032627;28;20649;-52
2022/07/19 06:30:18;;;;;;;1.15;1.05;;;17.00;55.50;;;;;;5032501;28;20232;-51
2022/07/19 06:32:48;;;;;;;1.50;0.80;;;17.00;55.50;;;;;;5032359;28;20576;-54
2022/07/19 06:35:19;;;;;;;1.08;0.90;;;17.00;55.50;;;;;;5032620;28;20211;-53
2022/07/19 06:37:50;;;;;;;1.38;1.10;;;17.00;55.50;;;;;;5031981;28;20204;-49
2022/07/19 06:40:22;;;;;;;1.02;0.93;;;16.90;55.50;;;;;;5031990;28;20220;-53
2022/07/19 06:42:53;;;;;;;1.30;0.82;;;17.00;55.50;;;;;;5032133;28;20203;-52
2022/07/19 06:45:24;;;;;;;1.10;1.00;;;16.90;55.50;;;;;;5031982;28;20204;-55
2022/07/19 06:47:54;;;;;;;1.08;0.90;;;16.90;55.60;;;;;;5031867;28;20652;-45
2022/07/19 06:50:25;;;;;;;2.80;1.27;;;16.90;55.60;;;;;;5031825;28;20258;-49
2022/07/19 06:52:56;;;;;;;1.40;1.00;;;16.90;55.70;;;;;;5032682;28;20203;-55
2022/07/19 06:55:29;;;;;;;2.55;1.00;;;16.90;55.80;;;;;;5031991;28;20196;-48
2022/07/19 06:57:59;;;;;;;1.58;1.17;;;16.90;55.80;;;;;;5032453;28;20275;-51
2022/07/19 07:00:30;;;;;;;2.88;1.15;;;16.90;55.80;;;;;;5031524;28;20220;-51
2022/07/19 07:03:01;;;;;;;1.10;1.00;;;16.90;55.80;;;;;;5031958;28;20207;-51
2022/07/19 07:05:31;;;;;;;1.58;1.00;;;16.90;55.80;;;;;;5031488;28;20196;-55
2022/07/19 07:08:02;;;;;;;1.70;0.90;;;16.90;55.70;;;;;;5031774;28;20203;-50
2022/07/19 07:10:35;;;;;;;1.35;0.98;;;16.80;55.70;;;;;;5031836;28;20238;-50
2022/07/19 07:13:06;;;;;;;1.10;1.00;;;16.80;55.70;;;;;;5031442;28;20196;-51
2022/07/19 07:15:38;;;;;;;1.10;1.00;;;16.80;55.80;;;;;;5031790;28;20199;-59
2022/07/19 07:18:08;;;;;;;1.10;1.00;;;16.80;55.80;;;;;;5016415;28;20196;-49
2022/07/19 07:20:39;;;;;;;2.13;0.90;;;16.70;55.70;;;;;;5014552;28;20228;-50
2022/07/19 07:23:10;;;;;;;1.20;0.80;;;16.70;55.80;;;;;;5031331;28;20203;-48
2022/07/19 07:25:42;;;;;;;1.23;0.90;;;16.70;55.80;;;;;;5031821;28;20192;-52
2022/07/19 07:28:13;;;;;;;1.00;0.73;;;16.60;55.70;;;;;;5031200;28;20205;-49
2022/07/19 07:30:44;;;;;;;1.20;0.85;;;16.60;55.70;;;;;;5031279;28;20228;-49
2022/07/19 07:33:14;;;;;;;1.23;1.00;;;16.60;55.70;;;;;;5018278;28;20557;-55
2022/07/19 07:35:45;;;;;;;1.00;0.93;;;16.60;55.70;;;;;;5011972;28;20208;-53
2022/07/19 07:38:16;;;;;;;0.82;0.82;;;16.60;55.70;;;;;;5011949;28;20201;-54
2022/07/19 07:40:48;;;;;;;0.90;0.80;;;16.60;55.70;;;;;;5011496;28;20256;-53
2022/07/19 07:43:19;;;;;;;1.17;0.93;;;16.60;55.70;;;;;;5015963;28;20223;-45
2022/07/19 07:45:50;;;;;;;1.00;0.70;;;16.50;55.70;;;;;;5031644;28;20208;-47
2022/07/19 07:48:20;;;;;;;0.82;0.82;;;16.50;55.70;;;;;;5031458;28;20196;-48
2022/07/19 07:50:51;;;;;;;1.35;0.82;;;16.50;55.70;;;;;;5031259;28;20239;-45
2022/07/19 07:53:22;;;;;;;0.70;0.70;;;16.50;55.70;;;;;;5032045;28;20723;-47
2022/07/19 07:55:55;;;;;;;0.80;0.80;;;16.50;55.80;;;;;;5031191;28;20200;-46
2022/07/19 07:58:25;;;;;;;1.00;0.88;;;16.40;55.80;;;;;;5031306;28;20576;-46
2022/07/19 08:00:56;;;;;;;0.90;0.80;;;16.40;55.70;;;;;;5030977;28;20224;-50
2022/07/19 08:03:27;;;;;;;0.80;0.70;;;16.40;55.80;;;;;;5031108;28;20207;-46
2022/07/19 08:05:57;;;;;;;0.95;0.80;;;16.40;55.80;;;;;;5030987;28;20560;-47
2022/07/19 08:08:28;;;;;;;0.70;0.70;;;16.40;55.70;;;;;;5031075;28;20203;-46
2022/07/19 08:11:01;;;;;;;0.93;0.90;;;16.40;55.80;;;;;;5030527;28;20228;-47
2022/07/19 08:13:32;;;;;;;0.82;0.82;;;16.40;55.80;;;;;;5030436;28;20200;-46
2022/07/19 08:16:03;;;;;;;0.82;0.82;;;16.40;55.80;;;;;;5031070;28;20232;-53
2022/07/19 08:18:33;;;;;;;1.02;0.93;;;16.30;55.80;;;;;;5030878;28;20648;-51
2022/07/19 08:21:04;;;;;;;1.00;0.98;;;16.30;55.80;;;;;;5029921;28;20227;-48
2022/07/19 08:23:35;;;;;;;1.58;0.80;;;16.30;55.80;;;;;;5030579;28;20551;-46
2022/07/19 08:26:08;;;;;;;1.27;0.80;;;16.30;55.80;;;;;;5031193;28;20210;-49
2022/07/19 08:28:38;;;;;;;0.90;0.90;;;16.30;55.80;;;;;;5030208;28;20191;-49
2022/07/19 08:31:09;;;;;;;1.25;0.80;;;16.20;55.80;;;;;;5030587;28;20683;-52
2022/07/19 08:33:42;;;;;;;1.10;0.98;;;16.20;55.80;;;;;;5030919;28;20196;-46
2022/07/19 08:36:12;;;;;;;1.23;0.82;;;16.20;55.80;;;;;;5029782;28;20203;-45
2022/07/19 08:38:43;;;;;;;0.95;0.85;;;16.20;55.80;;;;;;5029904;28;20196;-46
2022/07/19 08:41:17;;;;;;;0.85;0.85;;;16.20;56.00;;;;;;5030454;28;20712;-45
2022/07/19 08:43:50;;;;;;;1.75;1.15;;;16.20;56.00;;;;;;5029766;28;20250;-49
2022/07/19 08:46:24;;;;;;;1.00;0.90;;;16.20;56.00;;;;;;5029590;28;20207;-48
2022/07/19 08:48:55;;;;;;;1.00;0.90;;;16.20;56.10;;;;;;5030489;28;20200;-49
2022/07/19 08:51:27;;;;;;;1.10;0.90;;;16.20;56.00;;;;;;5029564;28;20224;-47
2022/07/19 08:53:58;;;;;;;3.53;1.13;;;16.20;56.00;;;;;;5030931;28;20207;-48
2022/07/19 08:59:18;;;;;;;1.25;0.90;;;16.20;56.10;;;;;;5029284;28;20206;-48
2022/07/19 09:01:48;;;;;;;0.98;0.90;;;16.20;56.10;;;;;;5030440;28;20211;-49
2022/07/19 09:04:20;;;;;;;2.15;0.90;;;16.10;56.00;;;;;;5029979;28;20226;-52
2022/07/19 09:06:52;;;;;;;1.23;0.98;;;16.10;56.10;;;;;;5029842;28;20200;-49
2022/07/19 09:09:26;;;;;;;1.17;1.08;;;16.10;56.10;;;;;;5031951;28;20577;-49
2022/07/19 09:12:00;;;;;;;1.05;1.00;;;16.10;56.00;;;;;;5032046;28;20557;-47
2022/07/19 09:14:32;;;;;;;1.30;1.13;;;16.10;56.00;;;;;;5023268;28;20192;-45
2022/07/19 09:17:06;;;;;;;1.83;1.20;;;16.10;56.00;;;;;;5033290;28;20205;-47
2022/07/19 09:19:38;;;;;;;1.20;1.10;;;16.10;55.90;;;;;;5033323;28;20572;-45
2022/07/19 09:22:10;;;;;;;1.30;1.13;;;16.00;56.00;;;;;;5033860;28;20215;-47
2022/07/19 09:24:43;;;;;;;1.30;1.20;;;16.00;55.90;;;;;;5023227;28;20189;-50
2022/07/19 09:27:16;;;;;;;1.70;1.10;;;16.00;55.90;;;;;;5016240;28;20204;-55
2022/07/19 09:29:49;;;;;;;1.40;1.20;;;16.00;56.00;;;;;;5026685;28;20220;-51
2022/07/19 09:32:21;;;;;;;1.33;1.20;;;16.00;55.90;;;;;;5033692;28;20199;-49
2022/07/19 09:34:55;;;;;;;1.27;1.17;;;16.00;56.00;;;;;;5033472;28;20192;-54
2022/07/19 09:37:27;;;;;;;1.38;1.13;;;16.00;55.90;;;;;;5032821;28;20207;-56
2022/07/19 09:39:59;;;;;;;1.55;1.15;;;16.00;55.90;;;;;;5027329;28;20262;-55
2022/07/19 09:42:41;;;;;;;1.70;1.40;;;15.90;55.90;;;;;;5032798;28;20188;-47
2022/07/19 09:45:13;;;;;;;1.50;1.40;;;15.90;55.90;;;;;;5032508;28;20200;-52
2022/07/19 09:47:45;;;;;;;1.30;1.20;;;15.90;55.90;;;;;;5033258;28;20568;-48
2022/07/19 09:50:17;;;;;;;1.40;1.30;;;15.90;56.00;;;;;;5033320;28;20232;-54
2022/07/19 09:52:49;;;;;;;1.40;1.30;;;15.90;56.00;;;;;;5033237;28;20200;-51
2022/07/19 09:55:21;;;;;;;1.73;1.55;;;15.90;56.00;;;;;;5033726;28;20196;-55
2022/07/19 09:57:54;;;;;;;1.33;1.23;;;15.80;56.00;;;;;;5033138;28;20223;-57
2022/07/19 10:00:26;;;;;;;1.40;1.30;;;15.80;56.00;;;;;;5031977;28;20228;-57
2022/07/19 10:02:58;;;;;;;1.48;1.23;;;15.90;56.00;;;;;;5032484;28;20231;-49
2022/07/19 10:05:30;;;;;;;1.80;1.60;;;15.80;55.90;;;;;;5031251;28;20200;-49
2022/07/19 10:08:01;;;;;;;1.30;1.20;;;15.80;56.00;;;;;;5032410;28;20204;-54
2022/07/19 10:10:32;;;;;;;1.63;1.52;;;15.80;55.90;;;;;;5032451;28;20237;-58
2022/07/19 10:13:07;;;;;;;1.60;1.50;;;15.80;56.00;;;;;;5032273;28;20200;-53
2022/07/19 10:15:44;;;;;;;2.30;1.60;;;15.80;56.00;;;;;;5032283;28;20188;-58
2022/07/19 10:18:20;;;;;;;1.60;1.30;;;15.80;56.00;;;;;;5032578;28;20686;-54
2022/07/19 10:20:51;;;;;;;1.83;1.70;;;15.70;55.90;;;;;;5031582;28;20641;-51
2022/07/19 10:23:31;;;;;;;1.90;1.42;;;15.70;55.90;;;;;;5032335;28;20198;-57
2022/07/19 10:26:02;;;;;;;1.75;1.60;;;15.70;55.90;;;;;;5031508;28;20239;-57
2022/07/19 10:28:39;;;;;;;1.65;1.55;;;15.70;55.90;;;;;;5031195;28;20200;-56
2022/07/19 10:31:28;;;;;;;1.60;1.50;;;15.70;56.00;;;;;;5031592;28;20231;-46
2022/07/19 10:34:06;;;;;;;1.45;1.30;;;15.70;55.90;;;;;;5032280;28;20203;-56
2022/07/19 10:36:39;;;;;;;1.45;1.35;;;15.70;55.90;;;;;;5032464;28;20249;-55
2022/07/19 10:39:33;;;;;;;1.85;1.60;;;15.60;55.80;;;;;;5031773;28;20243;-57
2022/07/19 10:42:21;;;;;;;1.60;1.48;;;15.60;55.90;;;;;;5030456;28;20215;-49
2022/07/19 10:45:17;;;;;;;1.40;1.30;;;15.60;55.90;;;;;;5032582;28;20904;-53
2022/07/19 10:48:08;;;;;;;1.63;1.52;;;15.60;55.90;;;;;;5031297;28;20682;-53
2022/07/19 10:50:50;;;;;;;2.42;1.90;;;15.60;55.90;;;;;;5031031;28;20240;-52
2022/07/19 10:53:56;;;;;;;1.50;1.35;;;15.50;55.80;;;;;;5030947;28;20196;-48
2022/07/19 10:56:35;;;;;;;1.70;1.60;;;15.60;56.00;;;;;;5031913;28;20263;-45
2022/07/19 10:59:08;;;;;;;1.50;1.27;;;15.50;55.90;;;;;;5031537;28;20243;-51
2022/07/19 11:01:42;;;;;;;2.08;1.80;;;15.50;55.90;;;;;;5031842;28;20212;-48
2022/07/19 11:04:31;;;;;;;1.63;1.52;;;15.50;55.90;;;;;;5029735;28;20204;-46
2022/07/19 11:07:22;;;;;;;1.70;1.60;;;15.50;55.90;;;;;;5032074;28;20196;-57
2022/07/19 11:09:58;;;;;;;1.40;1.30;;;15.50;55.80;;;;;;5028696;28;20217;-53
2022/07/19 11:12:35;;;;;;;1.70;1.60;;;15.50;55.80;;;;;;5031683;28;20199;-57
2022/07/19 11:15:08;;;;;;;1.50;1.40;;;15.50;55.80;;;;;;5030889;28;20222;-52
2022/07/19 11:17:41;;;;;;;1.85;1.70;;;15.40;55.80;;;;;;5031707;28;20208;-56
2022/07/19 11:20:16;;;;;;;1.80;1.42;;;15.40;55.90;;;;;;5013858;28;20361;-55
2022/07/19 11:22:49;;;;;;;1.92;1.70;;;15.40;55.90;;;;;;5011131;28;20204;-47
2022/07/19 11:25:27;;;;;;;1.80;1.60;;;15.40;55.90;;;;;;5011552;28;20208;-55
2022/07/19 11:27:58;;;;;;;1.60;1.50;;;15.40;55.90;;;;;;5010885;28;20207;-55
2022/07/19 11:30:29;;;;;;;1.45;1.35;;;15.40;55.90;;;;;;5029925;28;20738;-49
2022/07/19 11:33:03;;;;;;;2.20;1.80;;;15.40;55.90;;;;;;5030692;28;20202;-56
2022/07/19 11:35:34;;;;;;;2.15;1.50;;;15.30;55.80;;;;;;5031412;28;20204;-49
2022/07/19 11:38:08;;;;;;;1.88;1.67;;;15.40;55.90;;;;;;5031205;28;20199;-47
2022/07/19 11:40:40;;;;;;;2.08;1.88;;;15.30;55.80;;;;;;5031365;28;20582;-49
2022/07/19 11:43:11;;;;;;;2.75;1.80;;;15.40;55.90;;;;;;5031108;28;20319;-49
2022/07/19 11:45:46;;;;;;;2.05;1.85;;;15.30;55.80;;;;;;5029883;28;20219;-47
2022/07/19 11:48:27;;;;;;;2.38;1.80;;;15.30;55.90;;;;;;5020446;28;20192;-50
2022/07/19 11:51:06;;;;;;;2.53;1.85;;;15.30;55.90;;;;;;5015708;28;20236;-49
2022/07/19 11:53:39;;;;;;;2.80;2.15;;;15.30;55.90;;;;;;5031068;28;20670;-49
2022/07/19 11:56:20;;;;;;;2.88;2.13;;;15.30;55.80;;;;;;5029918;28;20207;-46
2022/07/19 11:58:52;;;;;;;2.63;1.98;;;15.30;55.90;;;;;;5029853;28;20642;-52
2022/07/19 12:01:27;;;;;;;2.08;1.83;;;15.20;55.80;;;;;;5029908;28;20899;-50
2022/07/19 12:04:03;;;;;;;2.15;1.92;;;15.20;55.80;;;;;;5029835;28;20196;-46
2022/07/19 12:06:41;;;;;;;3.03;2.20;;;15.20;55.80;;;;;;5029434;28;20277;-51
2022/07/19 12:09:12;;;;;;;2.47;2.00;;;15.20;55.80;;;;;;5029305;28;20192;-45
2022/07/19 12:11:44;;;;;;;2.45;2.25;;;15.20;55.80;;;;;;5029767;28;20324;-47
2022/07/19 12:14:23;;;;;;;3.90;2.30;;;15.20;55.80;;;;;;5029745;28;20660;-48
2022/07/19 12:17:11;;;;;;;2.13;1.73;;;15.20;55.80;;;;;;5029454;28;20211;-47
2022/07/19 12:19:44;;;;;;;2.80;1.98;;;15.10;55.80;;;;;;5021859;28;20223;-48
2022/07/19 12:22:31;;;;;;;2.35;2.05;;;15.10;55.70;;;;;;5025966;28;20211;-47
2022/07/19 12:25:02;;;;;;;2.20;2.00;;;15.10;55.80;;;;;;5029448;28;20207;-49
2022/07/19 12:27:34;;;;;;;2.72;2.05;;;15.10;55.80;;;;;;5029786;28;20199;-58
2022/07/19 12:30:06;;;;;;;2.40;1.90;;;15.10;55.80;;;;;;5029448;28;20220;-46
2022/07/19 12:32:38;;;;;;;2.03;1.77;;;15.10;55.80;;;;;;5028712;28;20205;-48
2022/07/19 12:35:13;;;;;;;3.13;2.28;;;15.10;55.80;;;;;;5028668;28;20207;-51
2022/07/19 12:37:46;;;;;;;2.35;2.00;;;15.10;55.80;;;;;;5029642;28;20686;-47
2022/07/19 12:40:21;;;;;;;2.38;2.13;;;15.00;55.70;;;;;;5029225;28;20223;-51
2022/07/19 12:42:59;;;;;;;2.30;2.10;;;15.10;55.80;;;;;;5030127;28;20199;-53
2022/07/19 12:45:31;;;;;;;2.83;2.35;;;15.00;55.70;;;;;;5033151;28;20574;-47
2022/07/19 12:48:03;;;;;;;2.70;2.35;;;15.00;55.70;;;;;;5033281;28;20207;-55
2022/07/19 12:50:37;;;;;;;2.50;2.22;;;15.00;55.80;;;;;;5033616;28;20229;-50
2022/07/19 12:53:11;;;;;;;2.45;2.03;;;15.00;55.80;;;;;;5034154;28;20202;-50
2022/07/19 12:55:43;;;;;;;2.78;1.98;;;14.90;55.70;;;;;;5032852;28;20196;-53
2022/07/19 12:59:38;;;;;;;2.45;1.98;;;14.90;55.70;;;;;;5033145;28;20200;-58
2022/07/19 13:01:08;;;;;;;2.63;2.25;;;14.90;55.70;;;;;;5032481;28;20219;-51
2022/07/19 13:03:39;;;;;;;2.22;1.83;;;14.90;55.70;;;;;;5032979;28;20257;-52
2022/07/19 13:06:11;;;;;;;2.28;1.92;;;14.90;55.70;;;;;;5032562;28;20196;-48
2022/07/19 13:08:42;;;;;;;2.47;1.88;;;14.90;55.70;;;;;;5033051;28;20192;-47
2022/07/19 13:11:13;;;;;;;2.45;1.98;;;14.90;55.70;;;;;;5032568;28;20676;-52
2022/07/19 13:13:44;;;;;;;2.17;1.95;;;14.90;55.70;;;;;;5033354;28;20200;-46
2022/07/19 13:16:15;;;;;;;2.97;2.10;;;14.90;55.70;;;;;;5033000;28;20250;-48
2022/07/19 13:18:45;;;;;;;3.08;1.70;;;14.80;55.70;;;;;;5029786;28;20719;-54